Terminal Aerodrome Forecast
Issued by NWS

Home | Current Version | Previous Version | Text Only | Print | Product List | Glossary Off
Versions: 1 2 3 4 5 6 7 8 9 10 11 12 13 14

000
FTUS43 KIWX 232226 AAA
TAFSBN
TAF AMD
KSBN 232226Z 2322/2418 03008KT P6SM SCT020
      TEMPO 2400/2404 BKN020
     FM240400 05006KT P6SM BKN020
     FM241000 09006KT P6SM BKN015
     FM241500 10006KT P6SM BKN035=

USA.gov is the U.S. government's official web portal to all federal, state and local government web resources and services.